»·PEaware :: N505AP KSBA-KBUR

N505AP :: KSBA-KBUR

FLIGHT INFORMATION

Flight Status: Arrived
Operator: Privately registered:
United States
More flights under this callsign
Pilot: Ryan B. (26253)
Aircraft: CESSNA 172 SKYHAWK
(C172)
More flights by this aircraft type
Origin: KSBA Santa Barbara Mun
United States
Destination: KBUR Bob Hope-Burbank
United States
More flights between these airports :: More routes between these airports
Route: +
File this flight plan on PilotEdge
Remarks: CAT-08 Rating
Altitude:
(Current/Filed)
5,500ft
Speed:
(Current/Filed)
115kts
Departed: 08-Nov-19 08:18 AM
Arrived: 08-Nov-19 09:04 AM
Distance/Time
Traveled:
75nm/0:46
Distance/Time
To Go:
Arrived

Flight Plot

Page will automatically refresh every two minutes.


Map Options




Map Legend


Flown Route
Filed Route
Departure Airport
Arrival Airport
Navaid (VOR, NDB)
Fix

Horizontal Profiles

Position Reports

Time Latitude Longitude Heading Altitude Ground
Speed
08-Nov-19 08:05 34.422664 -119.835593 340 17ft 0kts
08-Nov-19 08:06 34.422664 -119.835593 340 17ft 0kts
08-Nov-19 08:07 34.422664 -119.835593 340 17ft 0kts
08-Nov-19 08:08 34.422664 -119.835593 340 17ft 0kts
08-Nov-19 08:09 34.422664 -119.835593 340 17ft 0kts
08-Nov-19 08:10 34.422664 -119.835593 340 17ft 0kts
08-Nov-19 08:11 34.422664 -119.835593 340 17ft 0kts
08-Nov-19 08:12 34.422664 -119.835593 340 17ft 0kts
08-Nov-19 08:13 34.422925 -119.837264 348 17ft 5kts
08-Nov-19 08:14 34.426446 -119.838274 353 17ft 7kts
08-Nov-19 08:15 34.427041 -119.834621 359 17ft 0kts
08-Nov-19 08:16 34.427041 -119.834621 359 17ft 0kts
08-Nov-19 08:17 34.427041 -119.834621 359 17ft 0kts
08-Nov-19 08:18 34.427620 -119.849897 268 353ft 80kts
08-Nov-19 08:19 34.425330 -119.884465 262 1527ft 84kts
08-Nov-19 08:20 34.421368 -119.933753 266 1495ft 104kts
08-Nov-19 08:20 34.397561 -119.943058 139 2207ft 90kts
08-Nov-19 08:22 34.355083 -119.900397 130 2868ft 121kts
08-Nov-19 08:22 34.353345 -119.870119 65 3420ft 109kts
08-Nov-19 08:23 34.368026 -119.830802 65 4132ft 106kts
08-Nov-19 08:25 34.382076 -119.793424 65 4818ft 108kts
08-Nov-19 08:25 34.392324 -119.766246 65 5312ft 107kts
08-Nov-19 08:26 34.400816 -119.740642 76 5503ft 117kts
08-Nov-19 08:27 34.402049 -119.692358 95 5500ft 121kts
08-Nov-19 08:28 34.397650 -119.651738 98 5500ft 121kts
08-Nov-19 08:29 34.392849 -119.616282 99 5500ft 120kts
08-Nov-19 08:30 34.387145 -119.576246 99 5500ft 119kts
08-Nov-19 08:31 34.381213 -119.535238 99 5500ft 119kts
08-Nov-19 08:32 34.375650 -119.496989 99 5501ft 119kts
08-Nov-19 08:33 34.370173 -119.459433 99 5500ft 121kts
08-Nov-19 08:34 34.364152 -119.418276 99 5500ft 121kts
08-Nov-19 08:35 34.358632 -119.380639 99 5500ft 120kts
08-Nov-19 08:36 34.354663 -119.353620 99 5500ft 120kts
08-Nov-19 08:37 34.349297 -119.317164 100 5500ft 120kts
08-Nov-19 08:38 34.343466 -119.277643 100 5500ft 120kts
08-Nov-19 08:39 34.337480 -119.237156 100 5500ft 120kts
08-Nov-19 08:40 34.331440 -119.196406 100 5500ft 120kts
08-Nov-19 08:41 34.325635 -119.157329 100 5500ft 120kts
08-Nov-19 08:42 34.319877 -119.118654 100 5500ft 120kts
08-Nov-19 08:43 34.313672 -119.077080 100 5500ft 120kts
08-Nov-19 08:44 34.307578 -119.036343 100 5500ft 120kts
08-Nov-19 08:45 34.302987 -119.005717 100 5500ft 120kts
08-Nov-19 08:46 34.297836 -118.971417 100 5500ft 121kts
08-Nov-19 08:47 34.291961 -118.934059 102 5500ft 121kts
08-Nov-19 08:48 34.284515 -118.891766 100 5500ft 121kts
08-Nov-19 08:49 34.278123 -118.850221 100 5500ft 121kts
08-Nov-19 08:50 34.273275 -118.818419 100 5385ft 121kts
08-Nov-19 08:51 34.266761 -118.775761 100 4864ft 124kts
08-Nov-19 08:52 34.260402 -118.734143 100 4361ft 125kts
08-Nov-19 08:53 34.254054 -118.692686 100 3862ft 126kts
08-Nov-19 08:54 34.248223 -118.654683 100 3450ft 124kts
08-Nov-19 08:55 34.241818 -118.612918 100 3464ft 119kts
08-Nov-19 08:56 34.235711 -118.573292 100 3464ft 118kts
08-Nov-19 08:57 34.229409 -118.532491 100 3464ft 119kts
08-Nov-19 08:58 34.223439 -118.493902 100 3464ft 119kts
08-Nov-19 08:59 34.218254 -118.458298 91 3342ft 115kts
08-Nov-19 09:00 34.225136 -118.415878 79 2516ft 118kts
08-Nov-19 09:01 34.222176 -118.377463 85 1620ft 92kts
08-Nov-19 09:02 34.211802 -118.360291 172 930ft 71kts
08-Nov-19 09:03 34.206013 -118.359682 234 780ft 0kts
08-Nov-19 09:04 34.205966 -118.359761 233 780ft 0kts
08-Nov-19 09:05 34.204950 -118.359579 167 780ft 10kts
08-Nov-19 09:06 34.202173 -118.358823 167 780ft 11kts
08-Nov-19 09:07 34.199388 -118.358031 168 780ft 7kts
08-Nov-19 09:08 34.199487 -118.359292 282 780ft 4kts

Navigation Log

Ident Type
Flight plan parsing failed, navigation log unavailable